Terminal Aerodrome Forecast
Issued by NWS

Home | Current Version | Previous Version | Text Only | Print | Product List | Glossary On
Versions: 1 2 3 4 5 6 7 8 9 10 11 12 13 14 15 16 17 18 19 20 21 22 23 24 25 26 27 28 29 30 31 32 33 34 35 36 37 38 39 40
000
FTUS45 KBOU 211120
TAFAPA
TAF
KAPA 211120Z 2112/2212 18007KT P6SM SCT120 SCT200
     FM211500 VRB05KT P6SM FEW120 FEW200
     FM211800 11006KT P6SM FEW080 SCT120
     FM212200 15009KT P6SM VCTS SCT080CB BKN120 PROB30 2122/2202
      VRB15G30KT -TSRA BKN070CB
     FM220200 18010KT P6SM VCSH SCT080 BKN120
     FM220600 21008KT P6SM SCT120 SCT200=

USA.gov is the U.S. government's official web portal to all federal, state and local government web resources and services.